Main page
METAR-TAF:

METAR-TAF

Airports :

Del Norte International Airport

Monterrey Del Norte, Mexico

latitude: 25-52N, longitude: 100-14W, elevation: 1469 ft

Current weather observation

The report was made 1 hour and 21 minutes ago, at 17:40 UTC
Wind 6 mph from the South/Southeast
Temperature 91°F
Humidity 49%
Pressure 29.95 in. Hg
Visibility: 15 miles
Few clouds at a height of 3000 ft

METAR: MMAN 141740Z 16005KT 15SM FEW030 33/21 A2995 RMK SLP/// 5//// 9// 8/500

Time: 14:01 (19:01 UTC)

Forecast

The report was made 1 hour and 45 minutes ago, at 17:16 UTC
Forecast valid from 14 at 18 UTC to 15 at 18 UTC
Wind 12 mph from the Southeast
Visibility: 6 miles
Scattered clouds at a height of 3000 ft
From 15 at 0600 UTC
Wind 17 mph from the East/Southeast
Visibility: 6 miles
Scattered clouds at a height of 3000 ft
From 15 at 1200 UTC
Wind 14 mph from the East/Southeast
Visibility: 6 miles
Clear sky

TAF: MMAN 141716Z 1418/1518 14010KT P6SM SCT030 FM150600 12015KT P6SM SCT030 FM151200 12012KT P6SM SKC

Weather observations and forecasts of more than 4000 airports (METAR and TAF reports).

The available stations are represented by yellow and red dots on the map.

Hover mouse over dot to see the name of the station.

Then click to see weather observations and forecasts.

To change the map : click on the green buttons with a black cross to zoom in, on the green button with a dash to zoom out, or on the green arrows for adjacent maps.


METAR-TAF: